sensor_id;sensor_type;location;lat;lon;timestamp;pressure;altitude;pressure_sealevel;temperature;humidity
12178;BME280;6152;48.728;9.256;2023-04-27T00:00:08;97147.47;;;7.71;100.00
12178;BME280;6152;48.728;9.256;2023-04-27T00:02:36;97157.06;;;7.69;100.00
12178;BME280;6152;48.728;9.256;2023-04-27T00:05:03;97151.03;;;7.68;100.00
12178;BME280;6152;48.728;9.256;2023-04-27T00:07:30;97150.19;;;7.68;100.00
12178;BME280;6152;48.728;9.256;2023-04-27T00:09:56;97146.69;;;7.69;100.00
12178;BME280;6152;48.728;9.256;2023-04-27T00:12:22;97151.88;;;7.69;100.00
12178;BME280;6152;48.728;9.256;2023-04-27T00:14:49;97151.88;;;7.69;100.00
12178;BME280;6152;48.728;9.256;2023-04-27T00:17:15;97146.81;;;7.66;100.00
12178;BME280;6152;48.728;9.256;2023-04-27T00:19:41;97142.59;;;7.65;100.00
12178;BME280;6152;48.728;9.256;2023-04-27T00:22:08;97145.16;;;7.65;100.00
12178;BME280;6152;48.728;9.256;2023-04-27T00:24:34;97136.63;;;7.62;100.00
12178;BME280;6152;48.728;9.256;2023-04-27T00:27:00;97140.94;;;7.62;100.00
12178;BME280;6152;48.728;9.256;2023-04-27T00:29:26;97138.47;;;7.60;100.00
12178;BME280;6152;48.728;9.256;2023-04-27T00:31:52;97143.63;;;7.60;100.00
12178;BME280;6152;48.728;9.256;2023-04-27T00:34:18;97137.66;;;7.58;100.00
12178;BME280;6152;48.728;9.256;2023-04-27T00:36:44;97134.19;;;7.59;100.00
12178;BME280;6152;48.728;9.256;2023-04-27T00:39:10;97142.59;;;7.65;100.00
12178;BME280;6152;48.728;9.256;2023-04-27T00:41:37;97134.97;;;7.61;100.00
12178;BME280;6152;48.728;9.256;2023-04-27T00:44:06;97133.28;;;7.60;100.00
12178;BME280;6152;48.728;9.256;2023-04-27T00:46:33;97126.41;;;7.59;100.00
12178;BME280;6152;48.728;9.256;2023-04-27T00:49:00;97127.25;;;7.60;100.00
12178;BME280;6152;48.728;9.256;2023-04-27T00:51:26;97126.41;;;7.59;100.00
12178;BME280;6152;48.728;9.256;2023-04-27T00:53:57;97117.91;;;7.57;100.00
12178;BME280;6152;48.728;9.256;2023-04-27T00:56:23;97124.88;;;7.55;100.00
12178;BME280;6152;48.728;9.256;2023-04-27T00:58:49;97123.22;;;7.54;100.00
12178;BME280;6152;48.728;9.256;2023-04-27T01:01:16;97126.72;;;7.53;100.00
12178;BME280;6152;48.728;9.256;2023-04-27T01:03:42;97132.81;;;7.52;100.00
12178;BME280;6152;48.728;9.256;2023-04-27T01:06:08;97125.97;;;7.51;100.00
12178;BME280;6152;48.728;9.256;2023-04-27T01:08:35;97130.06;;;7.55;100.00
12178;BME280;6152;48.728;9.256;2023-04-27T01:11:01;97120.69;;;7.53;100.00
12178;BME280;6152;48.728;9.256;2023-04-27T01:13:27;97120.78;;;7.51;100.00
12178;BME280;6152;48.728;9.256;2023-04-27T01:15:53;97130.34;;;7.49;100.00
12178;BME280;6152;48.728;9.256;2023-04-27T01:18:19;97126.03;;;7.50;100.00
12178;BME280;6152;48.728;9.256;2023-04-27T01:20:45;97123.50;;;7.48;100.00
12178;BME280;6152;48.728;9.256;2023-04-27T01:23:15;97123.66;;;7.45;100.00
12178;BME280;6152;48.728;9.256;2023-04-27T01:25:41;97139.19;;;7.45;100.00
12178;BME280;6152;48.728;9.256;2023-04-27T01:28:07;97130.66;;;7.43;100.00
12178;BME280;6152;48.728;9.256;2023-04-27T01:30:33;97130.66;;;7.43;100.00
12178;BME280;6152;48.728;9.256;2023-04-27T01:32:59;97139.19;;;7.45;100.00
12178;BME280;6152;48.728;9.256;2023-04-27T01:35:25;97128.81;;;7.45;100.00
12178;BME280;6152;48.728;9.256;2023-04-27T01:37:51;97138.59;;;7.40;100.00
12178;BME280;6152;48.728;9.256;2023-04-27T01:40:18;97139.47;;;7.39;100.00
12178;BME280;6152;48.728;9.256;2023-04-27T01:42:44;97137.88;;;7.37;100.00
12178;BME280;6152;48.728;9.256;2023-04-27T01:45:10;97124.25;;;7.33;100.00
12178;BME280;6152;48.728;9.256;2023-04-27T01:47:37;97132.91;;;7.32;100.00
12178;BME280;6152;48.728;9.256;2023-04-27T01:50:03;97126.19;;;7.28;100.00
12178;BME280;6152;48.728;9.256;2023-04-27T01:52:29;97129.72;;;7.27;100.00
12178;BME280;6152;48.728;9.256;2023-04-27T01:54:56;97122.38;;;7.18;100.00
12178;BME280;6152;48.728;9.256;2023-04-27T01:57:22;97126.09;;;7.13;100.00
12178;BME280;6152;48.728;9.256;2023-04-27T01:59:48;97140.94;;;7.09;100.00
12178;BME280;6152;48.728;9.256;2023-04-27T02:02:14;97134.22;;;7.05;100.00
12178;BME280;6152;48.728;9.256;2023-04-27T02:04:40;97135.19;;;7.02;100.00
12178;BME280;6152;48.728;9.256;2023-04-27T02:07:08;97135.41;;;6.98;100.00
12178;BME280;6152;48.728;9.256;2023-04-27T02:09:34;97134.78;;;6.93;100.00
12178;BME280;6152;48.728;9.256;2023-04-27T02:12:00;97133.16;;;6.90;100.00
12178;BME280;6152;48.728;9.256;2023-04-27T02:14:27;97136.72;;;6.88;100.00
12178;BME280;6152;48.728;9.256;2023-04-27T02:16:53;97144.63;;;6.85;100.00
12178;BME280;6152;48.728;9.256;2023-04-27T02:19:19;97148.91;;;6.86;100.00
12178;BME280;6152;48.728;9.256;2023-04-27T02:21:45;97140.34;;;6.84;100.00
12178;BME280;6152;48.728;9.256;2023-04-27T02:24:11;97147.38;;;6.82;100.00
12178;BME280;6152;48.728;9.256;2023-04-27T02:26:37;97149.94;;;6.82;100.00
12178;BME280;6152;48.728;9.256;2023-04-27T02:29:04;97153.16;;;6.87;100.00
12178;BME280;6152;48.728;9.256;2023-04-27T02:31:30;97146.44;;;6.83;100.00
12178;BME280;6152;48.728;9.256;2023-04-27T02:33:56;97147.50;;;6.79;100.00
12178;BME280;6152;48.728;9.256;2023-04-27T02:36:22;97154.34;;;6.80;100.00
12178;BME280;6152;48.728;9.256;2023-04-27T02:38:48;97147.50;;;6.79;100.00
12178;BME280;6152;48.728;9.256;2023-04-27T02:41:14;97151.84;;;6.78;100.00
12178;BME280;6152;48.728;9.256;2023-04-27T02:43:40;97159.50;;;6.80;100.00
12178;BME280;6152;48.728;9.256;2023-04-27T02:46:06;97155.13;;;6.82;100.00
12178;BME280;6152;48.728;9.256;2023-04-27T02:48:33;97167.22;;;6.81;100.00
12178;BME280;6152;48.728;9.256;2023-04-27T02:51:01;97167.22;;;6.81;100.00
12178;BME280;6152;48.728;9.256;2023-04-27T02:53:27;97152.69;;;6.79;100.00
12178;BME280;6152;48.728;9.256;2023-04-27T02:55:53;97162.09;;;6.80;100.00
12178;BME280;6152;48.728;9.256;2023-04-27T02:58:20;97164.81;;;6.77;100.00
12178;BME280;6152;48.728;9.256;2023-04-27T03:00:46;97163.16;;;6.76;100.00
12178;BME280;6152;48.728;9.256;2023-04-27T03:03:12;97166.56;;;6.76;100.00
12178;BME280;6152;48.728;9.256;2023-04-27T03:05:38;97166.66;;;6.75;100.00
12178;BME280;6152;48.728;9.256;2023-04-27T03:08:04;97164.97;;;6.74;100.00
12178;BME280;6152;48.728;9.256;2023-04-27T03:10:31;97164.97;;;6.74;100.00
12178;BME280;6152;48.728;9.256;2023-04-27T03:12:57;97160.63;;;6.74;100.00
12178;BME280;6152;48.728;9.256;2023-04-27T03:15:23;97165.81;;;6.74;100.00
12178;BME280;6152;48.728;9.256;2023-04-27T03:17:49;97164.19;;;6.72;100.00
12178;BME280;6152;48.728;9.256;2023-04-27T03:20:15;97166.78;;;6.72;100.00
12178;BME280;6152;48.728;9.256;2023-04-27T03:22:41;97165.09;;;6.71;100.00
12178;BME280;6152;48.728;9.256;2023-04-27T03:25:07;97166.78;;;6.72;100.00
12178;BME280;6152;48.728;9.256;2023-04-27T03:27:33;97161.63;;;6.72;100.00
12178;BME280;6152;48.728;9.256;2023-04-27T03:30:00;97163.16;;;6.76;100.00
12178;BME280;6152;48.728;9.256;2023-04-27T03:32:26;97170.00;;;6.77;100.00
12178;BME280;6152;48.728;9.256;2023-04-27T03:34:52;97166.38;;;6.81;100.00
12178;BME280;6152;48.728;9.256;2023-04-27T03:37:18;97159.44;;;6.81;100.00
12178;BME280;6152;48.728;9.256;2023-04-27T03:39:44;97156.88;;;6.81;100.00
12178;BME280;6152;48.728;9.256;2023-04-27T03:42:10;97161.06;;;6.84;100.00
12178;BME280;6152;48.728;9.256;2023-04-27T03:44:36;97150.84;;;6.81;100.00
12178;BME280;6152;48.728;9.256;2023-04-27T03:47:02;97157.72;;;6.82;100.00
12178;BME280;6152;48.728;9.256;2023-04-27T03:49:34;97159.38;;;6.83;100.00
12178;BME280;6152;48.728;9.256;2023-04-27T03:52:01;97164.53;;;6.83;100.00
12178;BME280;6152;48.728;9.256;2023-04-27T03:54:28;97161.84;;;6.86;100.00
12178;BME280;6152;48.728;9.256;2023-04-27T03:56:54;97168.66;;;6.87;100.00
12178;BME280;6152;48.728;9.256;2023-04-27T03:59:20;97167.91;;;6.85;100.00
12178;BME280;6152;48.728;9.256;2023-04-27T04:01:46;97160.56;;;6.76;100.00
12178;BME280;6152;48.728;9.256;2023-04-27T04:04:12;97173.94;;;6.85;100.00
12178;BME280;6152;48.728;9.256;2023-04-27T04:06:38;97170.34;;;6.88;100.00
12178;BME280;6152;48.728;9.256;2023-04-27T04:09:05;97161.69;;;6.89;100.00
12178;BME280;6152;48.728;9.256;2023-04-27T04:11:31;97172.94;;;6.88;100.00
12178;BME280;6152;48.728;9.256;2023-04-27T04:13:57;97172.94;;;6.88;100.00
12178;BME280;6152;48.728;9.256;2023-04-27T04:16:23;97172.94;;;6.88;100.00
12178;BME280;6152;48.728;9.256;2023-04-27T04:18:50;97174.06;;;6.82;100.00
12178;BME280;6152;48.728;9.256;2023-04-27T04:21:16;97170.84;;;6.77;100.00
12178;BME280;6152;48.728;9.256;2023-04-27T04:23:42;97166.78;;;6.72;100.00
12178;BME280;6152;48.728;9.256;2023-04-27T04:26:08;97179.78;;;6.70;100.00
12178;BME280;6152;48.728;9.256;2023-04-27T04:28:35;97185.66;;;6.74;100.00
12178;BME280;6152;48.728;9.256;2023-04-27T04:31:02;97178.41;;;6.82;100.00
12178;BME280;6152;48.728;9.256;2023-04-27T04:33:28;97181.94;;;6.79;100.00
12178;BME280;6152;48.728;9.256;2023-04-27T04:35:54;97185.50;;;6.77;100.00
12178;BME280;6152;48.728;9.256;2023-04-27T04:38:20;97181.50;;;6.70;100.00
12178;BME280;6152;48.728;9.256;2023-04-27T04:40:48;97182.44;;;6.69;100.00
12178;BME280;6152;48.728;9.256;2023-04-27T04:43:15;97183.25;;;6.69;100.00
12178;BME280;6152;48.728;9.256;2023-04-27T04:45:41;97187.38;;;6.73;100.00
12178;BME280;6152;48.728;9.256;2023-04-27T04:48:08;97189.22;;;6.71;100.00
12178;BME280;6152;48.728;9.256;2023-04-27T04:50:35;97193.53;;;6.71;100.00
12178;BME280;6152;48.728;9.256;2023-04-27T04:53:01;97189.13;;;6.73;100.00
12178;BME280;6152;48.728;9.256;2023-04-27T04:55:27;97188.75;;;6.82;100.00
12178;BME280;6152;48.728;9.256;2023-04-27T04:57:54;97189.50;;;6.84;100.00
12178;BME280;6152;48.728;9.256;2023-04-27T05:00:20;97183.28;;;6.88;100.00
12178;BME280;6152;48.728;9.256;2023-04-27T05:02:47;97191.81;;;6.90;100.00
12178;BME280;6152;48.728;9.256;2023-04-27T05:05:13;97199.56;;;6.90;100.00
12178;BME280;6152;48.728;9.256;2023-04-27T05:07:39;97191.81;;;6.90;100.00
12178;BME280;6152;48.728;9.256;2023-04-27T05:10:05;97193.50;;;6.91;100.00
12178;BME280;6152;48.728;9.256;2023-04-27T05:12:32;97195.31;;;6.89;100.00
12178;BME280;6152;48.728;9.256;2023-04-27T05:14:58;97199.47;;;6.93;100.00
12178;BME280;6152;48.728;9.256;2023-04-27T05:17:24;97193.63;;;6.88;100.00
12178;BME280;6152;48.728;9.256;2023-04-27T05:19:51;97190.84;;;6.92;100.00
12178;BME280;6152;48.728;9.256;2023-04-27T05:22:17;97194.16;;;6.96;100.00
12178;BME280;6152;48.728;9.256;2023-04-27T05:24:43;97194.28;;;6.93;100.00
12178;BME280;6152;48.728;9.256;2023-04-27T05:27:09;97197.44;;;6.99;100.00
12178;BME280;6152;48.728;9.256;2023-04-27T05:29:37;97198.69;;;7.09;100.00
12178;BME280;6152;48.728;9.256;2023-04-27T05:32:03;97198.81;;;7.25;100.00
12178;BME280;6152;48.728;9.256;2023-04-27T05:34:29;97197.34;;;7.38;100.00
12178;BME280;6152;48.728;9.256;2023-04-27T05:36:55;97203.56;;;7.53;100.00
12178;BME280;6152;48.728;9.256;2023-04-27T05:39:21;97207.19;;;7.68;100.00
12178;BME280;6152;48.728;9.256;2023-04-27T05:41:48;97216.03;;;7.81;100.00
12178;BME280;6152;48.728;9.256;2023-04-27T05:44:14;97214.38;;;7.97;100.00
12178;BME280;6152;48.728;9.256;2023-04-27T05:46:40;97207.97;;;8.04;100.00
12178;BME280;6152;48.728;9.256;2023-04-27T05:49:06;97205.81;;;8.13;100.00
12178;BME280;6152;48.728;9.256;2023-04-27T05:51:32;97212.78;;;8.30;100.00
12178;BME280;6152;48.728;9.256;2023-04-27T05:53:58;97212.22;;;8.41;100.00
12178;BME280;6152;48.728;9.256;2023-04-27T05:56:26;97218.38;;;8.55;100.00
12178;BME280;6152;48.728;9.256;2023-04-27T05:58:52;97218.69;;;8.67;100.00
12178;BME280;6152;48.728;9.256;2023-04-27T06:01:18;97218.88;;;8.79;100.00
12178;BME280;6152;48.728;9.256;2023-04-27T06:03:44;97212.94;;;8.77;100.00
12178;BME280;6152;48.728;9.256;2023-04-27T06:06:10;97226.25;;;8.87;100.00
12178;BME280;6152;48.728;9.256;2023-04-27T06:08:37;97226.22;;;9.04;100.00
12178;BME280;6152;48.728;9.256;2023-04-27T06:11:04;97226.16;;;9.21;100.00
12178;BME280;6152;48.728;9.256;2023-04-27T06:13:30;97227.97;;;9.36;100.00
12178;BME280;6152;48.728;9.256;2023-04-27T06:15:58;97223.41;;;9.24;100.00
12178;BME280;6152;48.728;9.256;2023-04-27T06:18:25;97235.97;;;9.16;100.00
12178;BME280;6152;48.728;9.256;2023-04-27T06:20:51;97227.84;;;9.06;100.00
12178;BME280;6152;48.728;9.256;2023-04-27T06:23:17;97234.63;;;9.09;100.00
12178;BME280;6152;48.728;9.256;2023-04-27T06:25:43;97230.94;;;9.13;100.00
12178;BME280;6152;48.728;9.256;2023-04-27T06:28:09;97237.63;;;9.17;100.00
12178;BME280;6152;48.728;9.256;2023-04-27T06:30:36;97238.84;;;9.27;100.00
12178;BME280;6152;48.728;9.256;2023-04-27T06:33:02;97242.13;;;9.46;100.00
12178;BME280;6152;48.728;9.256;2023-04-27T06:35:28;97243.97;;;9.44;100.00
12178;BME280;6152;48.728;9.256;2023-04-27T06:37:54;97251.09;;;9.41;100.00
12178;BME280;6152;48.728;9.256;2023-04-27T06:40:24;97246.56;;;9.44;100.00
12178;BME280;6152;48.728;9.256;2023-04-27T06:42:50;97249.91;;;9.62;100.00
12178;BME280;6152;48.728;9.256;2023-04-27T06:45:17;97248.13;;;9.94;100.00
12178;BME280;6152;48.728;9.256;2023-04-27T06:47:43;97242.50;;;10.17;100.00
12178;BME280;6152;48.728;9.256;2023-04-27T06:50:09;97251.25;;;10.46;100.00
12178;BME280;6152;48.728;9.256;2023-04-27T06:52:35;97244.50;;;10.57;100.00
12178;BME280;6152;48.728;9.256;2023-04-27T06:55:02;97253.41;;;10.53;100.00
12178;BME280;6152;48.728;9.256;2023-04-27T06:57:28;97242.41;;;10.78;100.00
12178;BME280;6152;48.728;9.256;2023-04-27T06:59:54;97243.28;;;10.93;100.00
12178;BME280;6152;48.728;9.256;2023-04-27T07:02:20;97250.34;;;11.05;100.00
12178;BME280;6152;48.728;9.256;2023-04-27T07:04:46;97253.38;;;10.97;100.00
12178;BME280;6152;48.728;9.256;2023-04-27T07:07:12;97253.66;;;11.07;100.00
12178;BME280;6152;48.728;9.256;2023-04-27T07:09:38;97256.28;;;11.21;100.00
12178;BME280;6152;48.728;9.256;2023-04-27T07:12:04;97255.63;;;11.18;100.00
12178;BME280;6152;48.728;9.256;2023-04-27T07:14:31;97253.47;;;11.24;100.00
12178;BME280;6152;48.728;9.256;2023-04-27T07:16:58;97257.13;;;11.36;100.00
12178;BME280;6152;48.728;9.256;2023-04-27T07:19:24;97250.88;;;11.38;100.00
12178;BME280;6152;48.728;9.256;2023-04-27T07:21:50;97256.09;;;11.38;100.00
12178;BME280;6152;48.728;9.256;2023-04-27T07:24:17;97249.75;;;11.42;100.00
12178;BME280;6152;48.728;9.256;2023-04-27T07:26:43;97243.22;;;11.49;100.00
12178;BME280;6152;48.728;9.256;2023-04-27T07:29:09;97246.47;;;11.67;100.00
12178;BME280;6152;48.728;9.256;2023-04-27T07:31:37;97259.16;;;11.45;100.00
12178;BME280;6152;48.728;9.256;2023-04-27T07:34:03;97245.66;;;11.38;100.00
12178;BME280;6152;48.728;9.256;2023-04-27T07:36:30;97250.69;;;10.85;100.00
12178;BME280;6152;48.728;9.256;2023-04-27T07:38:56;97248.72;;;10.74;100.00
12178;BME280;6152;48.728;9.256;2023-04-27T07:41:23;97241.78;;;10.89;100.00
12178;BME280;6152;48.728;9.256;2023-04-27T07:43:49;97242.47;;;10.77;100.00
12178;BME280;6152;48.728;9.256;2023-04-27T07:46:17;97245.75;;;10.80;100.00
12178;BME280;6152;48.728;9.256;2023-04-27T07:48:43;97243.50;;;10.74;100.00
12178;BME280;6152;48.728;9.256;2023-04-27T07:51:10;97243.25;;;10.79;100.00
12178;BME280;6152;48.728;9.256;2023-04-27T07:53:36;97247.81;;;11.03;100.00
12178;BME280;6152;48.728;9.256;2023-04-27T07:56:05;97251.56;;;11.13;100.00
12178;BME280;6152;48.728;9.256;2023-04-27T07:58:31;97243.72;;;11.28;100.00
12178;BME280;6152;48.728;9.256;2023-04-27T08:00:57;97251.63;;;11.54;100.00
12178;BME280;6152;48.728;9.256;2023-04-27T08:03:23;97253.44;;;11.81;100.00
12178;BME280;6152;48.728;9.256;2023-04-27T08:05:49;97258.03;;;12.04;100.00
12178;BME280;6152;48.728;9.256;2023-04-27T08:08:15;97250.00;;;12.07;100.00
12178;BME280;6152;48.728;9.256;2023-04-27T08:10:42;97254.13;;;11.97;93.88
12178;BME280;6152;48.728;9.256;2023-04-27T08:13:08;97251.03;;;12.31;95.67
12178;BME280;6152;48.728;9.256;2023-04-27T08:15:35;97254.28;;;12.08;90.24
12178;BME280;6152;48.728;9.256;2023-04-27T08:18:01;97247.34;;;12.21;88.63
12178;BME280;6152;48.728;9.256;2023-04-27T08:20:27;97243.69;;;12.63;91.89
12178;BME280;6152;48.728;9.256;2023-04-27T08:22:53;97239.78;;;13.21;89.03
12178;BME280;6152;48.728;9.256;2023-04-27T08:25:20;97240.59;;;13.46;78.36
12178;BME280;6152;48.728;9.256;2023-04-27T08:27:46;97238.44;;;14.00;74.60
12178;BME280;6152;48.728;9.256;2023-04-27T08:30:12;97223.13;;;14.65;65.93
12178;BME280;6152;48.728;9.256;2023-04-27T08:32:38;97238.53;;;15.60;60.33
12178;BME280;6152;48.728;9.256;2023-04-27T08:35:05;97222.31;;;17.24;54.17
12178;BME280;6152;48.728;9.256;2023-04-27T08:37:32;97223.44;;;19.16;49.88
12178;BME280;6152;48.728;9.256;2023-04-27T08:39:58;97217.00;;;20.55;44.60
12178;BME280;6152;48.728;9.256;2023-04-27T08:42:24;97211.84;;;21.75;40.81
12178;BME280;6152;48.728;9.256;2023-04-27T08:44:51;97197.34;;;22.85;38.93
12178;BME280;6152;48.728;9.256;2023-04-27T08:47:17;97198.69;;;23.99;36.09
12178;BME280;6152;48.728;9.256;2023-04-27T08:49:43;97202.88;;;24.70;34.78
12178;BME280;6152;48.728;9.256;2023-04-27T08:52:16;97198.34;;;25.45;32.76
12178;BME280;6152;48.728;9.256;2023-04-27T08:54:42;97198.31;;;26.54;30.30
12178;BME280;6152;48.728;9.256;2023-04-27T08:57:12;97193.94;;;27.45;28.47
12178;BME280;6152;48.728;9.256;2023-04-27T08:59:39;97191.06;;;28.28;27.10
12178;BME280;6152;48.728;9.256;2023-04-27T09:02:05;97176.53;;;28.90;26.06
12178;BME280;6152;48.728;9.256;2023-04-27T09:04:41;97176.22;;;29.77;25.28
12178;BME280;6152;48.728;9.256;2023-04-27T09:07:14;97173.09;;;30.37;23.63
12178;BME280;6152;48.728;9.256;2023-04-27T09:09:41;97178.75;;;29.52;22.64
12178;BME280;6152;48.728;9.256;2023-04-27T09:12:36;97174.81;;;28.30;23.88
12178;BME280;6152;48.728;9.256;2023-04-27T09:15:03;97169.13;;;28.98;23.78
12178;BME280;6152;48.728;9.256;2023-04-27T09:17:31;97171.97;;;27.90;23.17
12178;BME280;6152;48.728;9.256;2023-04-27T09:20:10;97183.38;;;25.88;26.27
12178;BME280;6152;48.728;9.256;2023-04-27T09:22:47;97179.03;;;27.01;25.93
12178;BME280;6152;48.728;9.256;2023-04-27T09:25:31;97181.41;;;25.97;26.23
12178;BME280;6152;48.728;9.256;2023-04-27T09:27:58;97177.84;;;27.38;25.82
12178;BME280;6152;48.728;9.256;2023-04-27T09:30:25;97189.78;;;28.11;24.25
12178;BME280;6152;48.728;9.256;2023-04-27T09:32:57;97183.13;;;28.68;23.90
12178;BME280;6152;48.728;9.256;2023-04-27T09:35:31;97173.97;;;29.74;23.08
12178;BME280;6152;48.728;9.256;2023-04-27T09:37:59;97177.84;;;29.91;23.81
12178;BME280;6152;48.728;9.256;2023-04-27T09:40:27;97174.16;;;28.28;23.79
12178;BME280;6152;48.728;9.256;2023-04-27T09:42:57;97174.03;;;29.21;23.84
12178;BME280;6152;48.728;9.256;2023-04-27T09:45:24;97174.25;;;29.46;23.33
12178;BME280;6152;48.728;9.256;2023-04-27T09:47:51;97168.16;;;30.28;24.05
12178;BME280;6152;48.728;9.256;2023-04-27T09:50:17;97175.31;;;30.09;22.59
12178;BME280;6152;48.728;9.256;2023-04-27T09:52:45;97175.28;;;29.45;22.59
12178;BME280;6152;48.728;9.256;2023-04-27T09:55:20;97163.25;;;30.18;22.84
12178;BME280;6152;48.728;9.256;2023-04-27T10:03:28;97171.56;;;32.08;20.61
12178;BME280;6152;48.728;9.256;2023-04-27T10:06:37;97158.00;;;32.44;19.39
12178;BME280;6152;48.728;9.256;2023-04-27T10:09:08;97152.22;;;33.35;19.23
12178;BME280;6152;48.728;9.256;2023-04-27T10:11:39;97160.56;;;31.91;19.54
12178;BME280;6152;48.728;9.256;2023-04-27T10:14:07;97162.38;;;32.27;20.12
12178;BME280;6152;48.728;9.256;2023-04-27T10:19:11;97160.78;;;33.32;19.24
12178;BME280;6152;48.728;9.256;2023-04-27T10:21:57;97153.91;;;33.88;18.60
12178;BME280;6152;48.728;9.256;2023-04-27T10:27:03;97155.50;;;34.00;18.04
12178;BME280;6152;48.728;9.256;2023-04-27T10:29:44;97158.13;;;34.35;18.30
12178;BME280;6152;48.728;9.256;2023-04-27T10:32:25;97149.31;;;34.57;17.25
12178;BME280;6152;48.728;9.256;2023-04-27T10:35:03;97156.09;;;34.71;17.89
12178;BME280;6152;48.728;9.256;2023-04-27T10:40:58;97148.06;;;34.47;17.79
12178;BME280;6152;48.728;9.256;2023-04-27T10:43:29;97143.00;;;35.13;17.33
12178;BME280;6152;48.728;9.256;2023-04-27T10:46:07;97135.13;;;35.11;17.10
12178;BME280;6152;48.728;9.256;2023-04-27T10:48:34;97133.75;;;33.56;17.77
12178;BME280;6152;48.728;9.256;2023-04-27T10:51:01;97134.50;;;33.16;18.56
12178;BME280;6152;48.728;9.256;2023-04-27T10:53:33;97129.97;;;31.13;19.61
12178;BME280;6152;48.728;9.256;2023-04-27T10:56:01;97133.69;;;29.87;20.79
12178;BME280;6152;48.728;9.256;2023-04-27T10:58:27;97127.22;;;30.01;20.58
12178;BME280;6152;48.728;9.256;2023-04-27T11:00:53;97129.72;;;30.27;20.34
12178;BME280;6152;48.728;9.256;2023-04-27T11:03:23;97131.06;;;31.96;20.06
12178;BME280;6152;48.728;9.256;2023-04-27T11:06:00;97124.00;;;31.84;19.92
12178;BME280;6152;48.728;9.256;2023-04-27T11:08:27;97129.25;;;30.99;20.15
12178;BME280;6152;48.728;9.256;2023-04-27T11:10:55;97127.06;;;29.89;21.12
12178;BME280;6152;48.728;9.256;2023-04-27T11:13:23;97129.47;;;30.35;20.75
12178;BME280;6152;48.728;9.256;2023-04-27T11:15:54;97122.09;;;30.87;20.69
12178;BME280;6152;48.728;9.256;2023-04-27T11:18:22;97119.13;;;31.20;19.97
12178;BME280;6152;48.728;9.256;2023-04-27T11:20:50;97105.16;;;31.29;19.76
12178;BME280;6152;48.728;9.256;2023-04-27T11:23:26;97116.88;;;31.17;20.00
12178;BME280;6152;48.728;9.256;2023-04-27T11:25:54;97123.94;;;30.30;21.08
12178;BME280;6152;48.728;9.256;2023-04-27T11:28:21;97117.78;;;30.23;21.71
12178;BME280;6152;48.728;9.256;2023-04-27T11:30:56;97121.31;;;31.29;21.15
12178;BME280;6152;48.728;9.256;2023-04-27T11:33:22;97122.09;;;30.87;20.13
12178;BME280;6152;48.728;9.256;2023-04-27T11:35:48;97118.81;;;30.60;20.82
12178;BME280;6152;48.728;9.256;2023-04-27T11:38:18;97112.16;;;31.12;21.00
12178;BME280;6152;48.728;9.256;2023-04-27T11:40:46;97109.75;;;31.04;20.55
12178;BME280;6152;48.728;9.256;2023-04-27T11:43:13;97115.19;;;31.40;20.63
12178;BME280;6152;48.728;9.256;2023-04-27T11:45:43;97121.19;;;31.61;19.58
12178;BME280;6152;48.728;9.256;2023-04-27T11:48:15;97124.09;;;31.59;20.06
12178;BME280;6152;48.728;9.256;2023-04-27T11:50:46;97123.81;;;31.06;20.59
12178;BME280;6152;48.728;9.256;2023-04-27T11:53:13;97121.31;;;30.17;21.36
12178;BME280;6152;48.728;9.256;2023-04-27T11:55:39;97114.44;;;30.28;21.30
12178;BME280;6152;48.728;9.256;2023-04-27T11:58:13;97121.03;;;29.36;22.00
12178;BME280;6152;48.728;9.256;2023-04-27T12:00:40;97122.13;;;28.76;22.63
12178;BME280;6152;48.728;9.256;2023-04-27T12:03:06;97122.59;;;27.18;23.98
12178;BME280;6152;48.728;9.256;2023-04-27T12:05:33;97116.97;;;26.29;25.17
12178;BME280;6152;48.728;9.256;2023-04-27T12:08:00;97125.22;;;25.62;25.75
12178;BME280;6152;48.728;9.256;2023-04-27T12:10:26;97111.88;;;24.52;26.97
12178;BME280;6152;48.728;9.256;2023-04-27T12:12:53;97112.47;;;23.63;27.68
12178;BME280;6152;48.728;9.256;2023-04-27T12:15:19;97103.94;;;24.29;27.50
12178;BME280;6152;48.728;9.256;2023-04-27T12:17:45;97094.06;;;24.52;28.04
12178;BME280;6152;48.728;9.256;2023-04-27T12:20:12;97093.81;;;24.85;27.55
12178;BME280;6152;48.728;9.256;2023-04-27T12:22:40;97101.88;;;24.91;27.39
12178;BME280;6152;48.728;9.256;2023-04-27T12:25:06;97094.31;;;24.80;27.09
12178;BME280;6152;48.728;9.256;2023-04-27T12:27:33;97097.66;;;24.22;28.58
12178;BME280;6152;48.728;9.256;2023-04-27T12:29:59;97105.97;;;23.65;28.60
12178;BME280;6152;48.728;9.256;2023-04-27T12:32:25;97096.41;;;23.56;29.58
12178;BME280;6152;48.728;9.256;2023-04-27T12:34:52;97103.97;;;23.29;29.86
12178;BME280;6152;48.728;9.256;2023-04-27T12:37:18;97101.31;;;23.21;29.38
12178;BME280;6152;48.728;9.256;2023-04-27T12:39:46;97097.31;;;22.86;29.77
12178;BME280;6152;48.728;9.256;2023-04-27T12:42:12;97106.94;;;22.54;30.56
12178;BME280;6152;48.728;9.256;2023-04-27T12:44:38;97102.13;;;22.17;31.05
12178;BME280;6152;48.728;9.256;2023-04-27T12:47:04;97104.28;;;22.06;31.28
12178;BME280;6152;48.728;9.256;2023-04-27T12:49:30;97103.78;;;22.02;32.29
12178;BME280;6152;48.728;9.256;2023-04-27T12:51:56;97099.53;;;21.76;31.43
12178;BME280;6152;48.728;9.256;2023-04-27T12:54:23;97099.00;;;21.48;32.76
12178;BME280;6152;48.728;9.256;2023-04-27T12:56:49;97095.19;;;21.58;32.87
12178;BME280;6152;48.728;9.256;2023-04-27T12:59:16;97091.69;;;21.42;33.11
12178;BME280;6152;48.728;9.256;2023-04-27T13:01:42;97090.25;;;21.13;32.90
12178;BME280;6152;48.728;9.256;2023-04-27T13:04:18;97089.50;;;20.26;33.36
12178;BME280;6152;48.728;9.256;2023-04-27T13:06:44;97098.09;;;19.93;34.25
12178;BME280;6152;48.728;9.256;2023-04-27T13:09:11;97100.16;;;19.63;34.69
12178;BME280;6152;48.728;9.256;2023-04-27T13:11:38;97091.25;;;19.82;35.04
12178;BME280;6152;48.728;9.256;2023-04-27T13:14:04;97085.59;;;20.30;36.00
12178;BME280;6152;48.728;9.256;2023-04-27T13:16:30;97092.16;;;19.73;35.42
12178;BME280;6152;48.728;9.256;2023-04-27T13:18:56;97102.06;;;19.89;35.32
12178;BME280;6152;48.728;9.256;2023-04-27T13:21:22;97095.41;;;19.85;35.30
12178;BME280;6152;48.728;9.256;2023-04-27T13:23:48;97095.50;;;19.75;35.09